Portada
METAR-TAF:

METAR-TAF

Aeroports :

Tongatapu, Tonga

latitud: 21-14S, longitud: 175-09W, altitud: 38 m

Observació

L'informe es va fer fa 14 minuts, a les 18:00 UTC
Vent 3 kt del Oest/Nord-Oest
Temperatura 23°C
Humitat 94%
Pressió 1008 hPa
Visibilitat 10 km o més
Escasses núvols a una alçada de 900 ft
Escasses núvols a una alçada de 1500 ft, Cumulus congestus.
Cel ennuvolat a una alçada de 27000 ft

METAR: NFTF 101800Z 30003KT 9999 FEW009 FEW015TCU BKN270 23/22 Q1008

Hora: 07:14 (18:14 UTC)

Pronòstic

L'informe es va fer fa 1 hora i 9 minuts, a les 17:05 UTC
Pronòstic vàlid del 10 a les 18 UTC al 11 a les 18 UTC
Vent 7 kt del Oest
Visibilitat 10 km o més
Escasses núvols a una alçada de 1000 ft
Núvols disperses a una alçada de 10000 ft

TAF: NFTF 101705Z 1018/1118 26007KT 9999 FEW010 SCT100

Observacions i pronòstics meteorològics de més de 4000 aeroports (METAR i TAF).

Les estacions disponibles són els punts grocs i vermells al mapa.

Posi el ratolí al punt desitjat per veure el nom de l'estació.

Feu clic per veure les observacions i els pronòstics meteorològics.

Per canviar el mapa: feu clic els botons verds amb una creu de color negre per apropar; al botó verd amb un guió per allunyar la imatge; o en les fletxes verdes per a mapes adjacents.


METAR-TAF: